Home   Weather   United Kingdom   Hitchin   Past weeks
Flag for United Kingdom

Past Weather in Hitchin, England, United Kingdom — Yesterday and Last 2 Weeks

Currently: 43 °F. Partly cloudy. (Weather station: Luton Airport, United Kingdom). See more current weather

Past Weather in Hitchin — Graph

°F

Hitchin Temperature Yesterday

Maximum temperature yesterday: 57 °F (at 1:50 pm)
Minimum temperature yesterday: 43 °F (at 6:20 am)
Average temperature yesterday: 50 °F

High & Low Weather Summary for the Past Weeks

 TemperatureHumidityPressure
High68 °F (Apr 12, 2:50 pm)100% (Mar 31, 10:20 pm)30.42 "Hg (Mar 31, 10:20 pm)
Low39 °F (Apr 10, 5:20 am)47% (Apr 14, 1:20 pm)29.24 "Hg (Mar 31, 10:50 pm)
Average52 °F82%29.81 "Hg
* Reported Mar 31 10:20 pm — Apr 15 10:20 pm, Hitchin. Weather by CustomWeather, © 2024

Note: Actual official high and low records may vary slightly from our data, if they occured in-between our weather recording intervals... More about our weather records

Hitchin Weather History for the Previous 24 Hours

Scroll right to see more
 ConditionsComfort  
Time TempWeatherWind HumidityBarometerVisibility
10:20 pm
Mon, Apr 15
43 °FPartly cloudy.22 mph76%29.74 "HgN/A
9:50 pm41 °FQuite cool.21 mph81%29.74 "HgN/A
9:20 pm41 °FQuite cool.18 mph81%29.74 "HgN/A
8:50 pm43 °FQuite cool.22 mph76%29.74 "HgN/A
8:20 pm43 °FQuite cool.22 mph71%29.74 "HgN/A
7:50 pm45 °FPassing clouds.25 mph71%29.74 "HgN/A
7:20 pm45 °FPartly sunny.25 mph66%29.71 "HgN/A
6:50 pm46 °FPassing clouds.30 mph53%29.71 "HgN/A
6:20 pm48 °FPartly sunny.22 mph58%29.71 "HgN/A
5:50 pm48 °FPartly sunny.25 mph58%29.71 "HgN/A
5:20 pm48 °FScattered clouds.24 mph58%29.71 "HgN/A
4:50 pm45 °FScattered clouds.20 mph76%29.71 "HgN/A
4:20 pm50 °FScattered clouds.32 mph54%29.68 "HgN/A
3:50 pm46 °FLight rain. Partly sunny.28 mph66%29.68 "HgN/A
3:20 pm52 °FLight rain. Passing clouds.30 mph50%29.68 "HgN/A
2:20 pm52 °FScattered clouds.24 mph50%29.68 "HgN/A
1:50 pm50 °FScattered clouds.31 mph54%29.65 "HgN/A
1:20 pm50 °FCool.31 mph54%29.65 "HgN/A
12:50 pm48 °FScattered clouds.22 mph76%29.65 "HgN/A
12:20 pm41 °FBroken clouds.23 mph87%29.65 "HgN/A
11:50 am48 °FScattered showers. Scattered clouds.30 mph58%29.62 "HgN/A
11:20 am48 °FScattered showers. Partly sunny.28 mph66%29.62 "HgN/A
10:50 am48 °FBroken clouds.24 mph71%29.62 "HgN/A
10:20 am45 °FPassing clouds.22 mph81%29.62 "HgN/A
9:50 am43 °FLight rain. Scattered clouds.18 mph87%29.62 "HgN/A
9:20 am46 °FRain. Cloudy.26 mph93%29.59 "Hg2 mi
8:50 am46 °FLight rain. Mostly cloudy.21 mph87%29.59 "HgN/A
8:20 am46 °FLight rain. Mostly cloudy.22 mph87%29.62 "HgN/A
7:50 am46 °FMostly cloudy.20 mph87%29.65 "HgN/A
7:20 am46 °FLight rain. Partly sunny.17 mph87%29.68 "HgN/A
6:50 am45 °FLight rain. Mostly cloudy.16 mph93%29.71 "HgN/A
6:20 am45 °FPartly sunny.15 mph87%29.74 "HgN/A
5:50 am46 °FPassing clouds.18 mph82%29.74 "HgN/A
5:20 am45 °FPassing clouds.15 mph87%29.77 "HgN/A
4:50 am45 °FPassing clouds.14 mph87%29.80 "HgN/A
4:20 am43 °FMostly cloudy.14 mph93%29.83 "HgN/A
3:50 am43 °FOvercast.14 mph93%29.86 "HgN/A
3:20 am43 °FPassing clouds.13 mph87%29.89 "HgN/A
2:50 am43 °FQuite cool.12 mph87%29.89 "HgN/A
2:20 am43 °FQuite cool.9 mph87%29.92 "HgN/A
1:50 am45 °FQuite cool.12 mph81%29.95 "HgN/A
1:20 am45 °FQuite cool.16 mph81%29.95 "HgN/A
12:50 am45 °FQuite cool.15 mph81%29.98 "HgN/A
12:20 am45 °FQuite cool.15 mph81%29.98 "HgN/A
11:50 pm
Sun, Apr 14
45 °FQuite cool.15 mph81%30.01 "HgN/A
11:20 pm45 °FQuite cool.15 mph81%30.01 "HgN/A
Weather by CustomWeather, © 2024

See weather overview